createdAt,value
2022-07-31T10:34:51.568Z,1.25
2022-07-31T11:04:20.068Z,1.48
2022-07-31T11:34:31.372Z,1.50
2022-07-31T11:49:44.162Z,1.52
2022-07-31T12:48:56.537Z,1.50
2022-07-31T12:58:10.841Z,1.98
2022-07-31T13:07:43.544Z,1.40
2022-07-31T13:19:26.506Z,1.33
2022-07-31T13:56:43.696Z,2.17
2022-07-31T14:16:58.413Z,1.80
2022-07-31T14:33:28.188Z,2.00
2022-07-31T14:36:51.086Z,1.90
2022-07-31T14:51:36.864Z,2.08
2022-07-31T14:54:06.250Z,1.90
2022-07-31T14:57:02.666Z,2.08
2022-07-31T15:18:06.567Z,1.70
2022-07-31T15:31:36.215Z,2.03
2022-07-31T15:34:22.607Z,2.10
2022-07-31T15:37:34.898Z,2.25
2022-07-31T15:40:31.421Z,2.35
2022-07-31T15:45:47.481Z,2.00
2022-07-31T15:48:34.278Z,2.13
2022-07-31T15:51:18.453Z,1.95
2022-07-31T15:56:27.706Z,2.25
2022-07-31T15:58:59.839Z,2.00
2022-07-31T16:01:27.771Z,2.20
2022-07-31T16:04:16.770Z,1.90
2022-07-31T16:06:48.940Z,2.20
2022-07-31T16:10:03.489Z,1.90
2022-07-31T16:12:31.108Z,2.03
2022-07-31T16:15:08.225Z,2.45
2022-07-31T16:17:44.009Z,2.15
2022-07-31T16:20:26.300Z,2.20
2022-07-31T16:23:11.565Z,2.30
2022-07-31T16:26:03.431Z,2.03
2022-07-31T16:28:54.147Z,1.70
2022-07-31T16:34:40.528Z,2.67
2022-07-31T16:43:51.803Z,2.30
2022-07-31T16:52:44.371Z,2.60
2022-07-31T16:55:19.513Z,2.27
2022-07-31T16:57:58.168Z,2.40
2022-07-31T17:00:28.845Z,2.47
2022-07-31T17:03:05.099Z,2.37
2022-07-31T17:06:06.525Z,2.10
2022-07-31T17:08:36.987Z,2.15
2022-07-31T17:11:06.973Z,2.50
2022-07-31T17:13:44.908Z,2.72
2022-07-31T17:18:54.446Z,2.72
2022-07-31T17:21:31.039Z,3.05
2022-07-31T17:29:26.856Z,2.08
2022-07-31T17:32:00.827Z,1.95
2022-07-31T17:37:11.177Z,1.77
2022-07-31T17:39:47.756Z,1.95
2022-07-31T17:42:23.839Z,1.73
2022-07-31T17:48:02.449Z,1.70
2022-07-31T17:53:55.117Z,1.80
2022-07-31T17:56:20.994Z,2.10
2022-07-31T17:58:49.252Z,1.80
2022-07-31T18:01:20.528Z,1.83
2022-07-31T18:03:48.723Z,2.08
2022-07-31T18:06:18.670Z,2.17
2022-07-31T18:08:55.328Z,2.13
2022-07-31T18:11:22.439Z,2.17
2022-07-31T18:13:54.143Z,1.77
2022-07-31T18:16:39.956Z,1.83
2022-07-31T18:19:06.873Z,2.10
2022-07-31T18:21:53.225Z,2.13
2022-07-31T18:24:21.554Z,2.35
2022-07-31T18:26:54.094Z,2.58
2022-07-31T18:29:28.365Z,2.08
2022-07-31T18:31:56.380Z,2.38
2022-07-31T18:34:33.986Z,2.30
2022-07-31T18:40:33.759Z,2.40
2022-07-31T18:43:06.160Z,2.28
2022-07-31T18:45:44.027Z,2.38
2022-07-31T18:48:11.043Z,2.42
2022-07-31T18:51:01.286Z,2.35
2022-07-31T18:53:38.637Z,2.55
2022-07-31T18:56:05.810Z,2.22
2022-07-31T18:58:41.611Z,3.40
2022-07-31T19:01:18.503Z,2.72
2022-07-31T19:04:04.406Z,2.83
2022-07-31T19:09:34.091Z,3.03
2022-07-31T19:12:07.843Z,2.90
2022-07-31T19:14:44.564Z,3.33
2022-07-31T19:17:43.981Z,4.05
2022-07-31T19:20:46.495Z,4.63
2022-07-31T19:23:24.373Z,4.25
2022-07-31T19:26:03.507Z,4.00
2022-07-31T19:28:41.492Z,4.40
2022-07-31T19:31:16.735Z,5.10
2022-07-31T19:33:52.984Z,4.72
2022-07-31T19:36:20.002Z,5.32
2022-07-31T19:38:55.924Z,4.78
2022-07-31T19:41:22.955Z,4.75
2022-07-31T19:43:53.429Z,4.00
2022-07-31T19:46:20.908Z,3.95
2022-07-31T19:48:47.881Z,3.85
2022-07-31T19:51:28.039Z,3.40
2022-07-31T19:53:57.180Z,3.47
2022-07-31T19:56:25.439Z,3.15
2022-07-31T19:58:54.882Z,3.70
2022-07-31T20:01:34.596Z,3.40
2022-07-31T20:04:12.510Z,3.28
2022-07-31T20:06:59.239Z,3.17
2022-07-31T20:09:26.744Z,3.17
2022-07-31T20:14:52.561Z,3.00
2022-07-31T20:17:46.503Z,3.55
2022-07-31T20:20:15.765Z,3.00
2022-07-31T20:22:47.818Z,3.05
2022-07-31T20:25:21.919Z,2.83
2022-07-31T20:27:53.500Z,2.55
2022-07-31T20:30:48.074Z,2.95
2022-07-31T20:35:55.885Z,3.38
2022-07-31T20:38:28.530Z,3.10
2022-07-31T20:40:59.053Z,3.40
2022-07-31T20:43:37.160Z,3.63
2022-07-31T20:46:04.217Z,3.55
2022-07-31T20:48:48.068Z,3.25
2022-07-31T20:51:42.712Z,3.53
2022-07-31T20:57:07.379Z,3.38
2022-07-31T20:59:48.158Z,3.60
2022-07-31T21:02:45.661Z,3.40
2022-07-31T21:05:13.251Z,3.60
2022-07-31T21:07:56.786Z,3.28
2022-07-31T21:10:31.868Z,3.95
2022-07-31T21:12:58.915Z,3.25
2022-07-31T21:15:42.608Z,3.58
2022-07-31T21:18:13.360Z,3.35
2022-07-31T21:20:49.790Z,3.63
2022-07-31T21:23:27.794Z,3.50
2022-07-31T21:26:03.850Z,3.40
2022-07-31T21:28:31.430Z,3.53
2022-07-31T21:31:00.846Z,3.13
2022-07-31T21:33:35.641Z,4.40
2022-07-31T21:36:04.507Z,3.42
2022-07-31T21:38:35.374Z,3.05
2022-07-31T21:41:12.867Z,3.90
2022-07-31T21:43:58.255Z,3.60
2022-07-31T21:46:50.551Z,3.40
2022-07-31T21:52:14.913Z,3.70
2022-07-31T21:54:50.425Z,3.70
2022-07-31T21:57:21.310Z,3.95
2022-07-31T21:59:57.242Z,4.05
2022-07-31T22:02:33.833Z,4.30
2022-07-31T22:05:20.208Z,3.80
2022-07-31T22:07:58.351Z,3.88
2022-07-31T22:10:31.591Z,4.07
2022-07-31T22:15:56.979Z,3.35
2022-07-31T22:18:26.275Z,3.75
2022-07-31T22:21:18.437Z,4.45
2022-07-31T22:24:03.881Z,4.00
2022-07-31T22:26:34.032Z,4.43
2022-07-31T22:29:03.748Z,5.45
2022-07-31T22:31:31.050Z,4.20
2022-07-31T22:34:04.769Z,4.70
2022-07-31T22:36:32.676Z,4.28
2022-07-31T22:39:13.425Z,5.15
2022-07-31T22:41:41.851Z,4.95
2022-07-31T22:46:51.740Z,5.65
2022-07-31T22:49:26.229Z,5.28
2022-07-31T22:51:54.129Z,4.93
2022-07-31T22:54:21.203Z,5.00
2022-07-31T22:56:53.536Z,4.90
2022-07-31T22:59:21.494Z,4.65
2022-07-31T23:01:51.549Z,4.47
2022-07-31T23:04:19.529Z,4.93
2022-07-31T23:07:10.907Z,4.22
2022-07-31T23:09:56.398Z,4.43
2022-07-31T23:12:33.725Z,3.90
2022-07-31T23:15:01.597Z,4.43
2022-07-31T23:17:42.684Z,4.28
2022-07-31T23:20:12.811Z,4.05
2022-07-31T23:22:42.531Z,3.90
